Aérodrome :
LOGIN :

S'inscrire | Disclaimer

   EN    FR    IT 

 










Légende :    VFR   VFR Marginal   IFR   IFR Intensif   IFR Très Intensif
Visi : 
Plafond : 
>= 8 km
>= 3000ft
5 à 8 km
1000 à 3000 ft
1500m à 5 km
500 à 1000 ft
800 à 1500m
200 à 500 ft
< 800m
< 200 ft
Symboles :   Orages  Brouillard  Fortes neiges  Fortes précipitations  Vent > 20 kt
SIGMETs :   Divers  Orages  Givrage  Turbulence  Onde Orograph.  Cendres Volcan.







- Altitude de l'aérodrome : 302 ft
- Code IATA : CGN


EDDK - Cologne Bonn

DERNIER METAR :
  • 261050Z 28009KT 9999 FEW048 21/09 Q1015 NOSIG

METARs EXPIRÉS :
  • 261020Z 27008KT 200V310 9999 FEW046 21/10 Q1015 NOSIG
  • 260950Z 26009KT 230V300 9999 FEW045 21/10 Q1015 NOSIG
  • 260920Z 25009KT 170V280 9999 FEW040 20/10 Q1015 NOSIG
  • 260850Z 24007KT 200V270 9999 FEW037 19/09 Q1015 NOSIG
  • 260820Z 21006KT 170V260 CAVOK 18/10 Q1016 NOSIG

TAF TAF EDDK
Valide du 26 à 06h jusqu'au 27 à 12h UTC


260500Z 2606/2712 15005KT 9999 FEW035
BECMG 2606/2609 22006KT
BECMG 2610/2613 24011KT
BECMG 2619/2622 25006KT
TEMPO 2705/2710 BKN012
Pas de NOTAMs connus pour ce terrain.



MET'MAP, la Météo Aéronautique d'un coup d'oeil ! - Copyright ORBIFLY Décembre 2007 - Disclaimer

ORBIFLY MET'MAP TEAM :

Programmation & Développement : Alexandra Zaïnal
Conception & Développement : Baudouin d'Aumeries
Co-Programmation & Développement : Marc-Olivier Méhu
Soutien technique & logistique : Manuel Goepfert

Contact : metmap@orbifly.com




SOURCES & CREDITS :

   NOAA